Time;durP1;ratioP1;P1;durP2;ratioP2;P2;SDS_P1;SDS_P2;PMS_P1;PMS_P2;Temp;Humidity;BMP_temperature;BMP_pressure;BME280_temperature;BME280_humidity;BME280_pressure;Samples;Min_cycle;Max_cycle;Signal;HPM_P1;HPM_P2
2021/03/12 05:45:54;;;;;;;13.27;2.28;;;;;;;;;;6228095;22;883512;-77
2021/03/12 05:48:20;;;;;;;5.38;1.52;;;;;;;;;;6242670;23;20016;-75
2021/03/12 05:50:46;;;;;;;5.25;1.80;;;;;;;;;;6243607;23;20008;-77
2021/03/12 05:53:12;;;;;;;6.28;1.75;;;;;;;;;;6243998;23;20035;-76
2021/03/12 05:57:56;;;;;;;9.30;1.80;;;;;;;;;;5088409;27;20419;-76
2021/03/12 06:00:21;;;;;;;2.60;1.27;;;;;;;;;;5071646;28;20036;-77
2021/03/12 06:02:47;;;;;;;4.80;1.65;;;;;;;;;;5070986;28;20024;-77
2021/03/12 06:05:13;;;;;;;4.10;1.60;;;;;;;;;;5083965;22;20124;-81
2021/03/12 06:07:39;;;;;;;7.32;2.35;;;;;;;;;;5070933;28;20014;-81
2021/03/12 06:10:08;;;;;;;4.63;1.38;;;;;;;;;;5067799;28;20395;-81
2021/03/12 06:12:34;;;;;;;5.43;1.30;;;;;;;;;;5062999;28;20079;-81
2021/03/12 06:15:01;;;;;;;6.38;1.70;;;;;;;;;;5071715;28;20733;-81
2021/03/12 06:17:30;;;;;;;8.82;2.10;;;;;;;;;;5067510;28;20017;-81
2021/03/12 06:19:56;;;;;;;6.13;1.52;;;;;;;;;;5068038;28;20404;-81
2021/03/12 06:22:22;;;;;;;6.88;1.67;;;;;;;;;;5065873;28;20018;-80
2021/03/12 06:24:47;;;;;;;4.50;1.60;;;;;;;;;;5086170;28;20081;-81
2021/03/12 06:27:43;;;;;;;4.13;1.42;;;;;;;;;;5065440;28;20450;-81
2021/03/12 06:30:09;;;;;;;9.98;2.10;;;;;;;;;;5063490;28;20040;-82
2021/03/12 06:32:39;;;;;;;6.22;1.92;;;;;;;;;;5061339;28;20104;-82
2021/03/12 06:35:06;;;;;;;6.53;1.98;;;;;;;;;;5062812;28;20521;-82
2021/03/12 06:37:31;;;;;;;9.57;1.73;;;;;;;;;;5064613;28;20532;-82
2021/03/12 06:39:57;;;;;;;8.25;2.63;;;;;;;;;;5066954;28;20178;-82
2021/03/12 06:42:25;;;;;;;10.05;3.35;;;;;;;;;;5058339;28;20065;-82
2021/03/12 06:44:50;;;;;;;5.05;1.80;;;;;;;;;;5065633;28;20017;-82
2021/03/12 06:47:21;;;;;;;6.75;1.77;;;;;;;;;;5063746;28;20039;-82
2021/03/12 06:49:53;;;;;;;4.43;2.10;;;;;;;;;;5062926;28;20096;-82
2021/03/12 06:52:18;;;;;;;6.47;1.73;;;;;;;;;;5063008;28;20407;-82
2021/03/12 06:54:54;;;;;;;6.65;1.52;;;;;;;;;;5059369;28;20017;-82
2021/03/12 06:57:21;;;;;;;4.75;2.05;;;;;;;;;;5054584;28;20025;-82
2021/03/12 06:59:56;;;;;;;14.60;2.35;;;;;;;;;;5062457;28;20025;-82
2021/03/12 07:02:35;;;;;;;7.07;1.67;;;;;;;;;;5062837;28;20119;-82
2021/03/12 07:05:02;;;;;;;5.72;1.65;;;;;;;;;;5062112;28;20055;-81
2021/03/12 07:07:44;;;;;;;9.63;1.77;;;;;;;;;;5060328;28;20056;-82
2021/03/12 07:10:10;;;;;;;8.50;2.30;;;;;;;;;;5044906;28;20140;-82
2021/03/12 07:12:46;;;;;;;4.65;1.35;;;;;;;;;;5063366;28;20029;-82
2021/03/12 07:15:14;;;;;;;4.40;1.50;;;;;;;;;;5048094;28;20119;-82
2021/03/12 07:17:40;;;;;;;3.58;1.35;;;;;;;;;;5048421;28;20021;-82
2021/03/12 07:20:07;;;;;;;5.35;2.15;;;;;;;;;;5046577;28;20055;-81
2021/03/12 07:22:33;;;;;;;7.20;1.90;;;;;;;;;;5051199;28;20031;-81
2021/03/12 07:25:01;;;;;;;4.32;1.75;;;;;;;;;;5046797;28;20022;-81
2021/03/12 07:27:29;;;;;;;8.85;2.25;;;;;;;;;;5041620;28;20817;-82
2021/03/12 07:29:55;;;;;;;25.85;11.73;;;;;;;;;;5043776;28;20055;-82
2021/03/12 07:37:03;;;;;;;9.57;3.03;;;;;;;;;;5107953;27;20415;-82
2021/03/12 07:39:37;;;;;;;13.10;1.88;;;;;;;;;;5088854;28;20135;-82
2021/03/12 07:42:03;;;;;;;7.35;2.72;;;;;;;;;;5106921;28;20047;-82
2021/03/12 07:44:29;;;;;;;7.53;1.80;;;;;;;;;;5103575;28;20101;-82
2021/03/12 07:46:55;;;;;;;8.65;2.60;;;;;;;;;;5086548;28;20661;-82
2021/03/12 07:51:46;;;;;;;5.03;1.83;;;;;;;;;;5095231;27;20356;-82
2021/03/12 07:54:12;;;;;;;10.30;2.17;;;;;;;;;;5080763;28;20063;-82
2021/03/12 07:56:44;;;;;;;13.00;1.67;;;;;;;;;;5075941;28;20035;-82
2021/03/12 07:59:09;;;;;;;;;;;;;;;;;;5093307;28;20036;-82
2021/03/12 08:01:55;;;;;;;7.80;1.90;;;;;;;;;;5112743;28;19919;-81
2021/03/12 08:04:28;;;;;;;6.63;2.15;;;;;;;;;;5069720;28;20089;-82
2021/03/12 08:06:54;;;;;;;5.90;1.77;;;;;;;;;;5073930;28;20485;-82
2021/03/12 08:09:32;;;;;;;24.70;9.63;;;;;;;;;;5071807;28;20029;-82
2021/03/12 08:11:58;;;;;;;19.60;6.30;;;;;;;;;;5062775;28;20028;-83
2021/03/12 08:14:24;;;;;;;14.73;4.55;;;;;;;;;;5094915;28;20020;-82
2021/03/12 08:16:56;;;;;;;11.82;3.15;;;;;;;;;;5079854;28;20051;-82
2021/03/12 08:19:35;;;;;;;9.25;2.58;;;;;;;;;;5079392;28;20013;-82
2021/03/12 08:22:02;;;;;;;9.55;2.13;;;;;;;;;;5082274;28;20024;-81
2021/03/12 08:24:43;;;;;;;6.15;2.05;;;;;;;;;;5075153;28;20008;-81
2021/03/12 08:27:09;;;;;;;20.60;4.60;;;;;;;;;;5074240;28;20075;-81
2021/03/12 08:29:38;;;;;;;10.68;2.72;;;;;;;;;;5076265;28;20028;-82
2021/03/12 08:32:23;;;;;;;10.02;3.90;;;;;;;;;;5081052;28;20032;-82
2021/03/12 08:34:48;;;;;;;7.63;2.55;;;;;;;;;;5077399;28;20119;-82
2021/03/12 08:37:29;;;;;;;15.40;3.55;;;;;;;;;;5079570;28;20503;-84
2021/03/12 08:40:14;;;;;;;8.33;2.20;;;;;;;;;;5080304;28;20052;-83
2021/03/12 08:42:51;;;;;;;10.15;2.08;;;;;;;;;;5081464;28;20033;-84
2021/03/12 08:45:32;;;;;;;11.32;2.20;;;;;;;;;;5084935;28;20052;-84
2021/03/12 08:48:04;;;;;;;6.05;1.92;;;;;;;;;;5080759;28;20028;-84
2021/03/12 08:50:31;;;;;;;9.35;1.75;;;;;;;;;;5077584;28;20067;-84
2021/03/12 08:52:57;;;;;;;8.70;2.05;;;;;;;;;;5069914;28;20057;-84
2021/03/12 08:55:22;;;;;;;8.52;1.80;;;;;;;;;;5071977;28;20025;-84
2021/03/12 08:57:48;;;;;;;9.50;2.35;;;;;;;;;;5072308;28;20021;-84
2021/03/12 09:00:15;;;;;;;6.80;2.00;;;;;;;;;;5073339;28;20503;-84
2021/03/12 09:02:41;;;;;;;12.27;2.75;;;;;;;;;;5059968;28;20432;-84
2021/03/12 09:05:26;;;;;;;11.93;1.77;;;;;;;;;;5054930;28;20026;-84
2021/03/12 09:07:52;;;;;;;9.15;2.38;;;;;;;;;;5070397;28;20397;-84
2021/03/12 09:10:29;;;;;;;11.07;3.03;;;;;;;;;;5057704;28;20023;-84
2021/03/12 09:12:54;;;;;;;11.32;2.53;;;;;;;;;;5056191;28;20520;-84
2021/03/12 09:15:24;;;;;;;11.52;3.17;;;;;;;;;;5052304;28;20028;-84
2021/03/12 09:17:54;;;;;;;7.53;2.08;;;;;;;;;;5059389;28;20468;-83
2021/03/12 09:20:22;;;;;;;11.35;2.83;;;;;;;;;;5058073;28;20038;-84
2021/03/12 09:22:51;;;;;;;9.35;2.42;;;;;;;;;;5056071;28;20048;-84
2021/03/12 09:25:24;;;;;;;7.05;2.20;;;;;;;;;;5058411;28;20035;-84
2021/03/12 09:27:57;;;;;;;12.35;2.42;;;;;;;;;;5063396;28;20036;-84
2021/03/12 09:30:24;;;;;;;11.50;2.55;;;;;;;;;;5079688;28;20111;-84
2021/03/12 09:32:50;;;;;;;18.10;3.78;;;;;;;;;;5066600;28;20088;-85
2021/03/12 09:35:17;;;;;;;11.00;2.42;;;;;;;;;;5061379;28;20094;-84
2021/03/12 09:37:43;;;;;;;9.63;2.38;;;;;;;;;;5067254;28;20016;-84
2021/03/12 09:40:09;;;;;;;11.88;2.30;;;;;;;;;;5062552;28;20017;-84
2021/03/12 09:42:34;;;;;;;6.57;2.20;;;;;;;;;;5063989;28;20036;-84
2021/03/12 09:45:00;;;;;;;7.45;2.28;;;;;;;;;;5064312;28;20035;-84
2021/03/12 09:47:26;;;;;;;11.07;2.35;;;;;;;;;;5065283;28;20491;-84
2021/03/12 09:49:52;;;;;;;7.68;2.20;;;;;;;;;;5067513;28;19912;-84
2021/03/12 09:52:19;;;;;;;7.72;3.17;;;;;;;;;;5060966;28;20025;-84
2021/03/12 09:54:45;;;;;;;16.90;4.45;;;;;;;;;;5062448;28;20009;-82
2021/03/12 09:57:11;;;;;;;9.38;2.00;;;;;;;;;;5065638;28;20480;-81
2021/03/12 09:59:38;;;;;;;8.10;2.15;;;;;;;;;;5066506;28;20028;-81
2021/03/12 10:02:07;;;;;;;5.20;2.03;;;;;;;;;;5061998;28;20020;-81
2021/03/12 10:04:38;;;;;;;8.10;2.63;;;;;;;;;;5062865;28;20025;-81
2021/03/12 10:07:05;;;;;;;11.75;2.70;;;;;;;;;;5058841;28;20796;-81
2021/03/12 10:09:31;;;;;;;8.00;2.17;;;;;;;;;;5061270;28;20024;-81
2021/03/12 10:11:57;;;;;;;15.00;2.72;;;;;;;;;;5061814;28;20484;-81
2021/03/12 10:14:37;;;;;;;8.95;2.55;;;;;;;;;;5059709;28;20238;-81
2021/03/12 10:17:10;;;;;;;10.32;3.25;;;;;;;;;;5059262;28;20052;-81
2021/03/12 10:19:48;;;;;;;9.55;2.20;;;;;;;;;;5055649;28;20017;-81
2021/03/12 10:22:20;;;;;;;6.43;2.38;;;;;;;;;;5069446;28;20037;-81
2021/03/12 10:24:46;;;;;;;8.13;2.40;;;;;;;;;;5051308;28;20094;-80
2021/03/12 10:27:17;;;;;;;4.82;2.55;;;;;;;;;;5054593;28;20108;-81
2021/03/12 10:29:43;;;;;;;9.30;3.20;;;;;;;;;;5052449;28;20052;-81
2021/03/12 10:32:10;;;;;;;8.43;2.13;;;;;;;;;;5058201;28;20317;-82
2021/03/12 10:34:53;;;;;;;15.10;2.22;;;;;;;;;;5053663;28;20059;-81
2021/03/12 10:37:19;;;;;;;9.65;1.98;;;;;;;;;;5050068;28;20520;-81
2021/03/12 10:39:46;;;;;;;6.22;2.25;;;;;;;;;;5053142;28;20032;-81
2021/03/12 10:42:13;;;;;;;11.75;2.38;;;;;;;;;;5040282;28;20025;-84
2021/03/12 10:44:49;;;;;;;13.30;2.22;;;;;;;;;;5039835;28;20029;-84
2021/03/12 10:47:14;;;;;;;9.90;2.10;;;;;;;;;;5046124;28;20017;-84
2021/03/12 10:49:40;;;;;;;6.47;1.90;;;;;;;;;;5040835;28;20037;-84
2021/03/12 10:52:06;;;;;;;5.65;1.85;;;;;;;;;;5051452;28;20536;-83
2021/03/12 10:54:32;;;;;;;6.30;2.03;;;;;;;;;;5051678;28;20033;-84
2021/03/12 10:56:57;;;;;;;10.50;2.90;;;;;;;;;;5051122;28;20120;-84
2021/03/12 10:59:23;;;;;;;6.68;2.40;;;;;;;;;;5054176;28;20066;-84
2021/03/12 11:01:50;;;;;;;8.80;3.13;;;;;;;;;;5055614;28;20033;-84
2021/03/12 11:04:18;;;;;;;9.77;3.20;;;;;;;;;;5057159;28;20111;-84
2021/03/12 11:06:43;;;;;;;8.88;2.13;;;;;;;;;;5053858;28;20110;-84
2021/03/12 11:09:09;;;;;;;10.30;4.47;;;;;;;;;;5054367;28;20116;-84
2021/03/12 11:11:36;;;;;;;8.32;3.33;;;;;;;;;;5058715;28;20029;-84
2021/03/12 11:14:01;;;;;;;10.88;2.83;;;;;;;;;;5059395;28;20053;-84
2021/03/12 11:16:27;;;;;;;7.28;3.30;;;;;;;;;;5058790;28;20027;-84
2021/03/12 11:18:53;;;;;;;12.48;2.72;;;;;;;;;;5071504;28;20036;-84
2021/03/12 11:21:18;;;;;;;8.18;3.40;;;;;;;;;;5049627;28;20029;-83
2021/03/12 11:23:45;;;;;;;10.48;2.90;;;;;;;;;;5053031;28;20025;-84
2021/03/12 11:26:11;;;;;;;9.48;2.65;;;;;;;;;;5058077;28;20074;-83
2021/03/12 11:28:37;;;;;;;9.23;2.50;;;;;;;;;;5053556;28;20123;-84
2021/03/12 11:31:03;;;;;;;5.18;2.30;;;;;;;;;;5054466;28;20031;-84
2021/03/12 11:33:29;;;;;;;8.55;3.00;;;;;;;;;;5050791;28;20463;-83
2021/03/12 11:35:55;;;;;;;10.40;2.60;;;;;;;;;;5058199;28;20024;-83
2021/03/12 11:38:21;;;;;;;8.98;2.42;;;;;;;;;;5057654;28;20021;-84
2021/03/12 11:40:47;;;;;;;7.68;2.67;;;;;;;;;;5050700;28;20060;-84
2021/03/12 11:43:13;;;;;;;10.25;2.75;;;;;;;;;;5057655;28;20368;-83
2021/03/12 11:45:38;;;;;;;9.77;2.30;;;;;;;;;;5060103;28;20030;-84
2021/03/12 11:48:06;;;;;;;9.43;2.70;;;;;;;;;;5059719;28;20130;-84
2021/03/12 11:50:32;;;;;;;7.13;2.15;;;;;;;;;;5058147;28;20488;-84
2021/03/12 11:52:58;;;;;;;13.70;2.53;;;;;;;;;;5053082;28;20396;-84
2021/03/12 11:55:23;;;;;;;7.10;2.05;;;;;;;;;;5057975;28;20027;-84
2021/03/12 11:57:49;;;;;;;8.05;3.15;;;;;;;;;;5059691;28;20017;-83
2021/03/12 12:00:16;;;;;;;7.53;1.98;;;;;;;;;;5051377;28;20646;-84
2021/03/12 12:02:45;;;;;;;8.68;3.38;;;;;;;;;;5051202;28;20025;-84
2021/03/12 12:05:11;;;;;;;7.85;2.08;;;;;;;;;;5079977;22;20044;-76
2021/03/12 12:07:37;;;;;;;8.25;2.63;;;;;;;;;;5067027;28;20614;-77
2021/03/12 12:10:04;;;;;;;7.32;2.05;;;;;;;;;;5067480;28;20048;-77
2021/03/12 12:12:29;;;;;;;8.77;2.17;;;;;;;;;;5066820;28;20498;-76
2021/03/12 12:14:55;;;;;;;9.60;2.38;;;;;;;;;;5066606;28;20020;-77
2021/03/12 12:17:21;;;;;;;44.60;16.55;;;;;;;;;;5058577;28;20100;-77
2021/03/12 12:19:46;;;;;;;14.20;7.10;;;;;;;;;;5065966;28;20031;-77
2021/03/12 12:22:13;;;;;;;7.57;3.20;;;;;;;;;;5068737;28;20032;-77
2021/03/12 12:24:39;;;;;;;11.10;2.63;;;;;;;;;;5064069;28;20070;-77
2021/03/12 12:27:05;;;;;;;11.52;2.83;;;;;;;;;;5070550;28;20032;-76
2021/03/12 12:29:31;;;;;;;9.50;2.90;;;;;;;;;;5070434;28;20075;-77
2021/03/12 12:31:57;;;;;;;9.15;2.47;;;;;;;;;;5070938;28;20456;-76
2021/03/12 12:34:23;;;;;;;8.18;2.92;;;;;;;;;;5070316;28;20044;-77
2021/03/12 12:36:49;;;;;;;10.70;2.63;;;;;;;;;;5064415;28;20396;-76
2021/03/12 12:39:14;;;;;;;11.00;2.67;;;;;;;;;;5074277;28;20028;-76
2021/03/12 12:41:40;;;;;;;6.90;2.92;;;;;;;;;;5074760;28;20067;-76
2021/03/12 12:44:10;;;;;;;9.45;2.33;;;;;;;;;;5070884;28;20403;-77
2021/03/12 12:46:36;;;;;;;5.85;2.10;;;;;;;;;;5071057;28;20445;-77
2021/03/12 12:49:03;;;;;;;10.25;2.65;;;;;;;;;;5072871;28;20504;-79
2021/03/12 12:51:28;;;;;;;8.07;1.80;;;;;;;;;;5072830;28;20029;-79
2021/03/12 12:53:54;;;;;;;5.90;2.13;;;;;;;;;;5072714;28;20020;-78
2021/03/12 12:56:20;;;;;;;12.32;2.97;;;;;;;;;;5074992;28;20040;-80
2021/03/12 12:58:46;;;;;;;11.32;2.50;;;;;;;;;;5074600;28;20024;-80
2021/03/12 13:01:12;;;;;;;11.07;2.95;;;;;;;;;;5071966;28;20485;-79
2021/03/12 13:03:38;;;;;;;10.75;2.35;;;;;;;;;;5075840;28;20546;-80
2021/03/12 13:06:03;;;;;;;8.10;2.47;;;;;;;;;;5074130;28;20052;-80
2021/03/12 13:08:30;;;;;;;12.43;2.22;;;;;;;;;;5076730;28;20036;-79
2021/03/12 13:10:56;;;;;;;11.57;2.08;;;;;;;;;;5074195;28;20078;-80
2021/03/12 13:13:21;;;;;;;5.40;2.00;;;;;;;;;;5062911;28;20505;-80
2021/03/12 13:15:47;;;;;;;6.63;2.15;;;;;;;;;;5069303;28;20568;-78
2021/03/12 13:18:13;;;;;;;9.35;2.90;;;;;;;;;;5069309;28;20023;-79
2021/03/12 13:20:51;;;;;;;13.00;2.85;;;;;;;;;;5070269;28;20028;-80
2021/03/12 13:23:17;;;;;;;9.90;2.53;;;;;;;;;;5069396;28;20091;-78
2021/03/12 13:25:43;;;;;;;5.90;2.65;;;;;;;;;;5072228;28;20115;-79
2021/03/12 13:28:09;;;;;;;8.00;2.35;;;;;;;;;;5074630;28;20108;-78
2021/03/12 13:30:35;;;;;;;13.25;2.45;;;;;;;;;;5073622;28;20103;-79
2021/03/12 13:33:00;;;;;;;8.48;2.72;;;;;;;;;;5071923;28;20042;-79
2021/03/12 13:35:26;;;;;;;6.65;2.00;;;;;;;;;;5070317;28;20028;-80
2021/03/12 13:37:52;;;;;;;8.90;3.10;;;;;;;;;;5069641;28;20508;-77
2021/03/12 13:40:18;;;;;;;6.47;1.80;;;;;;;;;;5081514;28;20031;-79
2021/03/12 13:42:46;;;;;;;5.70;1.45;;;;;;;;;;5070338;28;20059;-78
2021/03/12 13:45:12;;;;;;;6.43;1.60;;;;;;;;;;5074106;28;20025;-78
2021/03/12 13:47:38;;;;;;;6.65;1.95;;;;;;;;;;5069139;28;20031;-79
2021/03/12 13:50:05;;;;;;;9.00;1.75;;;;;;;;;;5069364;28;20040;-79
2021/03/12 13:52:31;;;;;;;6.13;2.10;;;;;;;;;;5069714;28;20055;-80
2021/03/12 13:54:56;;;;;;;9.13;1.92;;;;;;;;;;5073759;28;20361;-78
2021/03/12 13:57:22;;;;;;;10.40;3.30;;;;;;;;;;5073901;28;20038;-77
2021/03/12 13:59:48;;;;;;;8.45;2.45;;;;;;;;;;5071448;28;20024;-80
2021/03/12 14:02:13;;;;;;;9.48;2.40;;;;;;;;;;5071295;28;20475;-81
2021/03/12 14:04:39;;;;;;;7.70;2.20;;;;;;;;;;5068547;28;20151;-81
2021/03/12 14:07:05;;;;;;;9.75;2.17;;;;;;;;;;5060728;28;20029;-78
2021/03/12 14:09:30;;;;;;;10.45;2.40;;;;;;;;;;5074094;28;20052;-77
2021/03/12 14:11:56;;;;;;;8.68;2.10;;;;;;;;;;5067442;28;20051;-77
2021/03/12 14:14:22;;;;;;;12.82;2.38;;;;;;;;;;5058677;28;20037;-77
2021/03/12 14:16:49;;;;;;;6.22;2.10;;;;;;;;;;5071463;28;20039;-77
2021/03/12 14:19:15;;;;;;;3.97;1.88;;;;;;;;;;5066223;28;20021;-77
2021/03/12 14:21:41;;;;;;;7.20;2.45;;;;;;;;;;5060018;28;20351;-78
2021/03/12 14:26:25;;;;;;;9.85;2.53;;;;;;;;;;5150078;27;20397;-76
2021/03/12 14:28:51;;;;;;;9.30;2.97;;;;;;;;;;5128685;28;20100;-78
2021/03/12 14:31:18;;;;;;;10.48;2.78;;;;;;;;;;5125389;28;20028;-77
2021/03/12 14:33:44;;;;;;;5.88;1.58;;;;;;;;;;5130753;27;20392;-77
2021/03/12 14:36:12;;;;;;;11.50;3.13;;;;;;;;;;5131942;28;20424;-78
2021/03/12 14:38:38;;;;;;;8.98;2.20;;;;;;;;;;5142849;27;20106;-77
2021/03/12 14:41:05;;;;;;;8.85;2.38;;;;;;;;;;5132003;28;20456;-78
2021/03/12 14:43:31;;;;;;;8.23;1.85;;;;;;;;;;5121676;27;20098;-77
2021/03/12 14:45:56;;;;;;;13.70;2.58;;;;;;;;;;5128361;27;20072;-78
2021/03/12 14:48:22;;;;;;;8.15;1.92;;;;;;;;;;5129462;27;19920;-78
2021/03/12 14:50:48;;;;;;;10.55;2.28;;;;;;;;;;5126861;27;20039;-78
2021/03/12 14:53:14;;;;;;;11.10;3.08;;;;;;;;;;5123973;27;20012;-78
2021/03/12 14:55:40;;;;;;;10.80;2.83;;;;;;;;;;5120707;28;20015;-77
2021/03/12 15:00:25;;;;;;;7.78;2.60;;;;;;;;;;5063975;28;20382;-77
2021/03/12 15:02:51;;;;;;;9.30;2.08;;;;;;;;;;5045556;28;20021;-78
2021/03/12 15:05:16;;;;;;;13.43;3.40;;;;;;;;;;5054514;28;20059;-78
2021/03/12 15:07:42;;;;;;;8.15;2.25;;;;;;;;;;5046542;28;20100;-78
2021/03/12 15:10:08;;;;;;;12.02;2.90;;;;;;;;;;5046189;28;20344;-78
2021/03/12 15:12:34;;;;;;;10.25;3.25;;;;;;;;;;5045940;28;20096;-78
2021/03/12 15:15:00;;;;;;;8.63;2.00;;;;;;;;;;5040360;28;20415;-78
2021/03/12 15:17:25;;;;;;;9.90;3.13;;;;;;;;;;5051715;28;20460;-78
2021/03/12 15:19:51;;;;;;;10.85;2.70;;;;;;;;;;5049294;28;20080;-80
2021/03/12 15:22:17;;;;;;;10.73;3.20;;;;;;;;;;5042644;28;20033;-78
2021/03/12 15:24:50;;;;;;;8.25;2.50;;;;;;;;;;5040252;28;20117;-79
2021/03/12 15:27:16;;;;;;;9.85;3.92;;;;;;;;;;5044376;28;20025;-78
2021/03/12 15:29:42;;;;;;;14.07;4.70;;;;;;;;;;5044054;28;20086;-79
2021/03/12 15:32:08;;;;;;;11.13;3.42;;;;;;;;;;5043535;28;20028;-79
2021/03/12 15:34:34;;;;;;;8.18;2.95;;;;;;;;;;5050670;28;20029;-77
2021/03/12 15:39:17;;;;;;;13.48;4.07;;;;;;;;;;5109280;27;20740;-78
2021/03/12 15:41:43;;;;;;;6.65;3.22;;;;;;;;;;5088913;28;20029;-78
2021/03/12 15:44:09;;;;;;;16.83;6.30;;;;;;;;;;5087577;28;20024;-78
2021/03/12 15:46:34;;;;;;;16.13;8.10;;;;;;;;;;5089128;28;20055;-77
2021/03/12 15:49:00;;;;;;;12.45;5.18;;;;;;;;;;5089235;28;20043;-79
2021/03/12 15:51:26;;;;;;;16.00;6.50;;;;;;;;;;5088950;28;20115;-79
2021/03/12 15:53:51;;;;;;;7.10;2.33;;;;;;;;;;5087581;28;20031;-78
2021/03/12 15:56:18;;;;;;;7.60;3.50;;;;;;;;;;5087854;28;20524;-78
2021/03/12 15:58:43;;;;;;;7.75;2.47;;;;;;;;;;5088998;28;20016;-78
2021/03/12 16:01:09;;;;;;;7.32;2.17;;;;;;;;;;5088426;28;20064;-79
2021/03/12 16:03:35;;;;;;;7.70;2.42;;;;;;;;;;5087159;28;20115;-78
2021/03/12 16:06:03;;;;;;;7.65;3.28;;;;;;;;;;5088291;28;20030;-80
2021/03/12 16:08:31;;;;;;;10.68;2.40;;;;;;;;;;5082887;28;21272;-79
2021/03/12 16:10:56;;;;;;;6.55;2.05;;;;;;;;;;5086166;28;20032;-78
2021/03/12 16:13:22;;;;;;;4.47;1.42;;;;;;;;;;5087295;28;20028;-79
2021/03/12 16:15:52;;;;;;;14.60;2.67;;;;;;;;;;5085973;28;20034;-78
2021/03/12 16:18:17;;;;;;;8.07;1.45;;;;;;;;;;5086040;28;20460;-79
2021/03/12 16:20:43;;;;;;;5.05;1.73;;;;;;;;;;5085173;28;20031;-78
2021/03/12 16:23:09;;;;;;;8.38;2.75;;;;;;;;;;5086092;28;20105;-78
2021/03/12 16:25:35;;;;;;;9.63;4.18;;;;;;;;;;5085632;28;20540;-78
2021/03/12 16:28:00;;;;;;;14.98;6.28;;;;;;;;;;5085688;28;20115;-78
2021/03/12 16:30:26;;;;;;;7.18;2.50;;;;;;;;;;5086752;28;20035;-79
2021/03/12 16:32:52;;;;;;;7.50;2.08;;;;;;;;;;5084754;28;20027;-78
2021/03/12 16:35:18;;;;;;;5.93;2.20;;;;;;;;;;5085500;28;20020;-78
2021/03/12 16:37:43;;;;;;;6.95;2.17;;;;;;;;;;5086347;28;20861;-78
2021/03/12 16:40:09;;;;;;;7.93;2.63;;;;;;;;;;5086407;28;20032;-78
2021/03/12 16:42:35;;;;;;;6.82;1.92;;;;;;;;;;5086528;28;20046;-79
2021/03/12 16:45:01;;;;;;;9.32;2.50;;;;;;;;;;5085385;28;20016;-78
2021/03/12 16:47:27;;;;;;;8.88;2.17;;;;;;;;;;5083655;28;20051;-78
2021/03/12 16:49:53;;;;;;;8.55;2.67;;;;;;;;;;5075315;28;20798;-78
2021/03/12 16:52:19;;;;;;;9.80;3.00;;;;;;;;;;5072240;28;20810;-78
2021/03/12 16:54:45;;;;;;;7.85;2.47;;;;;;;;;;5072341;28;20055;-78
2021/03/12 16:57:10;;;;;;;9.40;2.42;;;;;;;;;;5072543;28;20439;-78
2021/03/12 16:59:36;;;;;;;14.20;6.75;;;;;;;;;;5072921;28;20078;-78
2021/03/12 17:02:02;;;;;;;9.60;5.45;;;;;;;;;;5072450;28;20024;-78
2021/03/12 17:04:29;;;;;;;18.02;10.23;;;;;;;;;;5071551;28;20024;-78
2021/03/12 17:06:55;;;;;;;27.83;16.08;;;;;;;;;;5073022;28;20078;-78
2021/03/12 17:09:21;;;;;;;10.18;3.45;;;;;;;;;;5071806;28;20480;-77
2021/03/12 17:11:47;;;;;;;20.58;10.23;;;;;;;;;;5071092;28;20026;-78
2021/03/12 17:14:14;;;;;;;14.27;6.18;;;;;;;;;;5072084;28;20371;-77
2021/03/12 17:16:40;;;;;;;9.45;4.78;;;;;;;;;;5071977;28;20052;-78
2021/03/12 17:19:06;;;;;;;11.88;6.50;;;;;;;;;;5070724;28;20519;-79
2021/03/12 17:21:32;;;;;;;10.45;4.75;;;;;;;;;;5071952;28;20056;-79
2021/03/12 17:23:57;;;;;;;6.97;2.58;;;;;;;;;;5068381;28;20025;-79
2021/03/12 17:26:23;;;;;;;11.32;3.50;;;;;;;;;;5071920;28;20013;-78
2021/03/12 17:28:49;;;;;;;4.82;1.98;;;;;;;;;;5071200;28;20089;-78
2021/03/12 17:31:15;;;;;;;13.27;6.57;;;;;;;;;;5072229;28;20446;-79
2021/03/12 17:33:40;;;;;;;6.85;2.65;;;;;;;;;;5068574;28;20020;-78
2021/03/12 17:36:06;;;;;;;8.45;2.17;;;;;;;;;;5069746;28;20028;-78
2021/03/12 17:38:33;;;;;;;5.68;1.80;;;;;;;;;;5070466;28;20028;-76
2021/03/12 17:40:58;;;;;;;6.40;2.53;;;;;;;;;;5067668;28;20032;-77
2021/03/12 17:43:27;;;;;;;18.08;9.98;;;;;;;;;;5065866;28;20401;-77
2021/03/12 17:45:53;;;;;;;12.73;4.53;;;;;;;;;;5067850;28;20059;-78
2021/03/12 17:48:18;;;;;;;17.70;9.10;;;;;;;;;;5069611;28;20035;-77
2021/03/12 17:50:44;;;;;;;12.15;5.18;;;;;;;;;;5070277;28;20036;-78
2021/03/12 17:53:10;;;;;;;26.27;14.00;;;;;;;;;;5071598;28;20488;-78
2021/03/12 17:55:38;;;;;;;20.50;11.35;;;;;;;;;;5070915;28;20020;-78
2021/03/12 17:58:04;;;;;;;10.85;5.05;;;;;;;;;;5071971;28;20027;-78
2021/03/12 18:00:29;;;;;;;19.13;9.63;;;;;;;;;;5072018;28;20020;-78
2021/03/12 18:02:55;;;;;;;10.23;4.97;;;;;;;;;;5072080;28;20025;-78
2021/03/12 18:05:21;;;;;;;5.75;2.67;;;;;;;;;;5071902;28;20063;-78
2021/03/12 18:10:21;;;;;;;9.13;3.13;;;;;;;;;;5025009;28;20199;-86
2021/03/12 18:12:47;;;;;;;8.90;3.78;;;;;;;;;;5027093;28;20466;-85
2021/03/12 18:15:13;;;;;;;12.95;4.20;;;;;;;;;;5006068;28;20025;-85
2021/03/12 18:17:39;;;;;;;10.23;4.13;;;;;;;;;;5008579;28;20738;-86
2021/03/12 18:20:06;;;;;;;8.38;2.92;;;;;;;;;;4993623;28;20113;-85
2021/03/12 18:22:32;;;;;;;7.18;2.28;;;;;;;;;;4999618;28;20025;-85
2021/03/12 18:24:58;;;;;;;7.07;3.20;;;;;;;;;;4993178;28;20021;-85
2021/03/12 18:27:24;;;;;;;11.32;5.15;;;;;;;;;;5013726;28;20072;-85
2021/03/12 18:29:50;;;;;;;14.82;6.53;;;;;;;;;;4993568;28;20112;-85
2021/03/12 18:32:16;;;;;;;11.55;4.10;;;;;;;;;;5011924;28;20053;-85
2021/03/12 18:34:42;;;;;;;12.23;4.88;;;;;;;;;;5013211;28;20066;-85
2021/03/12 18:37:08;;;;;;;11.20;4.45;;;;;;;;;;5009407;28;20036;-86
2021/03/12 18:39:34;;;;;;;9.20;3.10;;;;;;;;;;5002009;28;20091;-86
2021/03/12 18:42:00;;;;;;;9.77;3.40;;;;;;;;;;4995296;28;20048;-84
2021/03/12 18:44:26;;;;;;;9.93;3.28;;;;;;;;;;4995484;28;20034;-85
2021/03/12 18:46:53;;;;;;;4.97;2.10;;;;;;;;;;4993448;28;20030;-85
2021/03/12 18:49:19;;;;;;;4.68;1.70;;;;;;;;;;4994312;28;20037;-84
2021/03/12 18:51:45;;;;;;;6.57;2.30;;;;;;;;;;5014137;28;20029;-85
2021/03/12 18:54:10;;;;;;;7.68;2.22;;;;;;;;;;5012348;28;20113;-85
2021/03/12 18:56:36;;;;;;;6.97;2.50;;;;;;;;;;4997879;28;20026;-86
2021/03/12 18:59:02;;;;;;;8.40;2.70;;;;;;;;;;5012959;28;20025;-84
2021/03/12 19:01:27;;;;;;;7.07;3.20;;;;;;;;;;4995820;28;20042;-85
2021/03/12 19:03:53;;;;;;;9.60;2.65;;;;;;;;;;4998875;28;20021;-85
2021/03/12 19:06:19;;;;;;;5.88;2.47;;;;;;;;;;5015286;28;20030;-84
2021/03/12 19:08:44;;;;;;;9.25;2.35;;;;;;;;;;5001927;28;20033;-85
2021/03/12 19:11:10;;;;;;;5.82;2.58;;;;;;;;;;5014045;28;20030;-85
2021/03/12 19:13:36;;;;;;;5.72;1.90;;;;;;;;;;4998542;28;20055;-85
2021/03/12 19:16:02;;;;;;;7.03;2.58;;;;;;;;;;5011987;28;20382;-85
2021/03/12 19:18:28;;;;;;;5.40;2.05;;;;;;;;;;5013413;28;20017;-85
2021/03/12 19:20:54;;;;;;;7.22;1.95;;;;;;;;;;5016723;28;20502;-86
2021/03/12 19:23:19;;;;;;;6.57;1.20;;;;;;;;;;4993090;28;20113;-85
2021/03/12 19:28:04;;;;;;;5.85;2.42;;;;;;;;;;5103368;27;20384;-85
2021/03/12 19:30:30;;;;;;;9.77;4.75;;;;;;;;;;5080515;28;20064;-85
2021/03/12 19:32:56;;;;;;;9.00;4.00;;;;;;;;;;5095493;28;20106;-85
2021/03/12 19:35:22;;;;;;;12.80;4.88;;;;;;;;;;5092324;28;20024;-84
2021/03/12 19:37:48;;;;;;;14.52;6.55;;;;;;;;;;5087981;28;20028;-86
2021/03/12 19:40:14;;;;;;;7.68;4.07;;;;;;;;;;5092230;28;20449;-85
2021/03/12 19:42:40;;;;;;;7.25;3.60;;;;;;;;;;5081593;28;20455;-84
2021/03/12 19:45:07;;;;;;;7.63;3.83;;;;;;;;;;5086400;28;20032;-86
2021/03/12 19:47:33;;;;;;;12.88;3.05;;;;;;;;;;5095658;27;20023;-85
2021/03/12 19:49:58;;;;;;;5.38;1.58;;;;;;;;;;5099769;28;20119;-85
2021/03/12 19:52:24;;;;;;;4.47;2.45;;;;;;;;;;5090026;28;20020;-85
2021/03/12 19:54:50;;;;;;;6.35;3.08;;;;;;;;;;5085533;28;20024;-86
2021/03/12 19:57:16;;;;;;;4.53;2.28;;;;;;;;;;5098914;28;20108;-86
2021/03/12 19:59:42;;;;;;;5.88;1.42;;;;;;;;;;5087198;28;20086;-85
2021/03/12 20:02:08;;;;;;;4.63;1.85;;;;;;;;;;5090471;28;20028;-85
2021/03/12 20:04:34;;;;;;;4.45;1.60;;;;;;;;;;5093269;28;20119;-85
2021/03/12 20:07:00;;;;;;;4.97;1.55;;;;;;;;;;5090958;28;20020;-85
2021/03/12 20:09:26;;;;;;;3.38;1.73;;;;;;;;;;5081720;28;20881;-85
2021/03/12 20:11:52;;;;;;;2.40;1.30;;;;;;;;;;5076853;28;20530;-85
2021/03/12 20:14:18;;;;;;;3.45;1.85;;;;;;;;;;5081617;28;20028;-85
2021/03/12 20:16:45;;;;;;;4.05;2.10;;;;;;;;;;5084202;28;20706;-85
2021/03/12 20:19:11;;;;;;;4.05;2.03;;;;;;;;;;5083357;28;20024;-85
2021/03/12 20:21:40;;;;;;;3.47;1.63;;;;;;;;;;5077207;28;20039;-85
2021/03/12 20:24:06;;;;;;;3.85;1.80;;;;;;;;;;5085153;27;20054;-84
2021/03/12 20:26:32;;;;;;;3.42;1.80;;;;;;;;;;5078148;28;20017;-85
2021/03/12 20:28:58;;;;;;;3.47;1.92;;;;;;;;;;5088738;28;20073;-85
2021/03/12 20:31:24;;;;;;;6.70;2.42;;;;;;;;;;5088877;28;20020;-85
2021/03/12 20:33:50;;;;;;;5.20;2.10;;;;;;;;;;5088232;28;20032;-85
2021/03/12 20:36:16;;;;;;;7.07;2.30;;;;;;;;;;5081661;28;20476;-85
2021/03/12 20:38:41;;;;;;;4.45;2.00;;;;;;;;;;5081164;28;20052;-85
2021/03/12 20:41:07;;;;;;;4.00;1.80;;;;;;;;;;5080186;28;20020;-85
2021/03/12 20:43:35;;;;;;;3.45;1.25;;;;;;;;;;5081469;28;20437;-85